createdAt,value
2018-09-28T00:01:04.768Z,9.30
2018-09-28T00:03:33.240Z,4.60
2018-09-28T00:06:01.696Z,13.00
2018-09-28T00:08:30.188Z,10.30
2018-09-28T00:10:58.671Z,12.37
2018-09-28T00:13:27.138Z,13.63
2018-09-28T00:15:55.536Z,12.50
2018-09-28T00:18:23.960Z,10.97
2018-09-28T00:20:52.479Z,11.27
2018-09-28T00:23:20.919Z,9.90
2018-09-28T00:25:49.359Z,8.73
2018-09-28T00:28:17.829Z,12.17
2018-09-28T00:30:46.291Z,6.43
2018-09-28T00:33:14.760Z,8.20
2018-09-28T00:35:43.248Z,9.53
2018-09-28T00:38:11.669Z,6.63
2018-09-28T00:40:40.110Z,4.83
2018-09-28T00:43:08.651Z,10.30
2018-09-28T00:45:37.127Z,6.13
2018-09-28T00:48:05.744Z,8.17
2018-09-28T00:50:34.195Z,9.07
2018-09-28T00:53:02.728Z,11.30
2018-09-28T00:55:31.197Z,14.93
2018-09-28T00:57:59.651Z,9.90
2018-09-28T01:00:28.157Z,12.30
2018-09-28T01:02:56.604Z,8.70
2018-09-28T01:05:25.049Z,11.43
2018-09-28T01:07:54.338Z,9.70
2018-09-28T01:10:22.838Z,7.53
2018-09-28T01:12:51.344Z,6.77
2018-09-28T01:15:19.779Z,9.17
2018-09-28T01:17:48.303Z,8.60
2018-09-28T01:20:16.824Z,10.73
2018-09-28T01:22:45.278Z,12.93
2018-09-28T01:25:13.781Z,11.00
2018-09-28T01:27:42.244Z,19.00
2018-09-28T01:30:10.919Z,16.90
2018-09-28T01:32:39.401Z,15.47
2018-09-28T01:35:07.764Z,12.67
2018-09-28T01:37:36.119Z,18.93
2018-09-28T01:40:04.534Z,13.03
2018-09-28T01:42:32.907Z,12.30
2018-09-28T01:45:01.279Z,11.57
2018-09-28T01:47:29.636Z,16.40
2018-09-28T01:49:58.160Z,20.13
2018-09-28T01:52:26.675Z,17.87
2018-09-28T01:54:55.199Z,23.70
2018-09-28T01:57:23.734Z,22.80
2018-09-28T01:59:52.143Z,27.67
2018-09-28T02:02:20.528Z,24.93
2018-09-28T02:04:49.039Z,29.17
2018-09-28T02:07:17.451Z,26.50
2018-09-28T02:09:45.847Z,29.43
2018-09-28T02:12:14.263Z,34.03
2018-09-28T02:14:42.751Z,37.33
2018-09-28T02:17:11.288Z,34.83
2018-09-28T02:19:39.656Z,28.00
2018-09-28T02:22:08.055Z,32.40
2018-09-28T02:24:36.636Z,29.93
2018-09-28T02:27:05.028Z,35.93
2018-09-28T02:29:33.428Z,28.50
2018-09-28T02:32:01.843Z,28.90
2018-09-28T02:34:30.248Z,25.77
2018-09-28T02:36:58.617Z,32.90
2018-09-28T02:39:26.962Z,32.93
2018-09-28T02:41:55.472Z,30.83
2018-09-28T02:44:23.955Z,31.50
2018-09-28T02:46:52.455Z,32.77
2018-09-28T02:49:20.873Z,29.03
2018-09-28T02:51:49.253Z,42.00
2018-09-28T02:54:17.809Z,42.40
2018-09-28T02:56:46.244Z,34.83
2018-09-28T02:59:14.655Z,35.77
2018-09-28T03:01:43.064Z,33.50
2018-09-28T03:04:11.433Z,32.47
2018-09-28T03:06:39.805Z,37.73
2018-09-28T03:09:09.128Z,30.50
2018-09-28T03:11:37.573Z,35.03
2018-09-28T03:14:05.942Z,31.30
2018-09-28T03:16:34.428Z,28.00
2018-09-28T03:19:02.942Z,27.30
2018-09-28T03:21:31.895Z,37.20
2018-09-28T03:24:00.516Z,38.90
2018-09-28T03:26:28.901Z,31.70
2018-09-28T03:28:57.398Z,32.10
2018-09-28T03:31:25.863Z,32.20
2018-09-28T03:33:54.373Z,33.73
2018-09-28T03:36:22.878Z,24.97
2018-09-28T03:38:51.387Z,34.93
2018-09-28T03:41:19.974Z,34.33
2018-09-28T03:43:48.464Z,43.97
2018-09-28T03:46:16.987Z,25.20
2018-09-28T03:48:45.474Z,27.43
2018-09-28T03:51:13.867Z,34.57
2018-09-28T03:53:42.328Z,32.00
2018-09-28T03:56:10.811Z,27.27
2018-09-28T03:58:39.193Z,23.70
2018-09-28T04:01:07.688Z,27.80
2018-09-28T04:03:36.176Z,27.23
2018-09-28T04:06:04.652Z,30.73
2018-09-28T04:08:33.111Z,31.30
2018-09-28T04:11:01.563Z,23.80
2018-09-28T04:13:30.134Z,25.20
2018-09-28T04:15:58.598Z,24.10
2018-09-28T04:18:27.024Z,17.00
2018-09-28T04:20:55.672Z,28.00
2018-09-28T04:23:24.140Z,30.40
2018-09-28T04:25:52.651Z,28.40
2018-09-28T04:28:21.118Z,29.23
2018-09-28T04:30:49.692Z,28.97
2018-09-28T04:33:18.163Z,35.37
2018-09-28T04:35:46.703Z,34.13
2018-09-28T04:38:15.183Z,32.90
2018-09-28T04:40:43.753Z,28.57
2018-09-28T04:43:12.653Z,26.50
2018-09-28T04:45:41.362Z,36.13
2018-09-28T04:48:09.902Z,35.17
2018-09-28T04:50:38.449Z,36.77
2018-09-28T04:53:07.013Z,39.80
2018-09-28T04:55:35.703Z,40.03
2018-09-28T04:58:04.232Z,38.30
2018-09-28T05:00:32.775Z,43.10
2018-09-28T05:03:01.291Z,47.33
2018-09-28T05:05:29.851Z,42.20
2018-09-28T05:07:58.319Z,50.93
2018-09-28T05:10:26.843Z,42.60
2018-09-28T05:12:55.556Z,40.60
2018-09-28T05:15:24.127Z,43.90
2018-09-28T05:17:52.690Z,51.80
2018-09-28T05:20:21.231Z,51.87
2018-09-28T05:22:49.839Z,48.63
2018-09-28T05:25:18.404Z,60.23
2018-09-28T05:27:46.902Z,61.70
2018-09-28T05:30:15.459Z,69.13
2018-09-28T05:32:44.079Z,65.70
2018-09-28T05:35:12.569Z,74.40
2018-09-28T05:37:41.175Z,62.90
2018-09-28T05:40:09.723Z,76.70
2018-09-28T05:42:38.524Z,73.87
2018-09-28T05:45:07.049Z,78.83
2018-09-28T05:47:35.563Z,70.10
2018-09-28T05:50:04.086Z,91.40
2018-09-28T05:52:32.567Z,64.27
2018-09-28T05:55:01.090Z,57.33
2018-09-28T05:57:29.604Z,66.63
2018-09-28T06:00:03.308Z,76.97
2018-09-28T06:02:37.903Z,57.13
2018-09-28T06:05:12.567Z,61.37
2018-09-28T06:07:41.081Z,59.23
2018-09-28T06:10:09.662Z,55.10
2018-09-28T06:12:38.250Z,63.73
2018-09-28T06:15:06.780Z,59.50
2018-09-28T06:17:35.267Z,76.57
2018-09-28T06:20:03.795Z,53.63
2018-09-28T06:22:32.282Z,53.00
2018-09-28T06:25:00.785Z,55.43
2018-09-28T06:27:29.264Z,55.33
2018-09-28T06:29:57.779Z,56.63
2018-09-28T06:32:26.219Z,43.83
2018-09-28T06:34:54.704Z,51.67
2018-09-28T06:37:23.165Z,54.23
2018-09-28T06:39:51.600Z,52.67
2018-09-28T06:42:20.156Z,48.20
2018-09-28T06:44:48.559Z,48.73
2018-09-28T06:47:16.987Z,57.97
2018-09-28T06:49:45.477Z,63.80
2018-09-28T06:52:14.039Z,76.77
2018-09-28T06:54:42.533Z,73.57
2018-09-28T06:57:11.047Z,70.20
2018-09-28T06:59:39.517Z,79.33
2018-09-28T07:02:08.063Z,82.83
2018-09-28T07:04:36.603Z,87.03
2018-09-28T07:07:05.111Z,80.90
2018-09-28T07:09:33.729Z,92.23
2018-09-28T07:12:02.224Z,87.60
2018-09-28T07:14:30.771Z,102.30
2018-09-28T07:16:59.436Z,83.80
2018-09-28T07:19:28.025Z,103.33
2018-09-28T07:21:56.553Z,95.87
2018-09-28T07:24:26.103Z,100.13
2018-09-28T07:26:54.647Z,105.10
2018-09-28T07:29:23.159Z,115.50
2018-09-28T07:31:51.983Z,106.87
2018-09-28T07:34:20.867Z,128.13
2018-09-28T07:36:49.461Z,132.43
2018-09-28T07:39:17.880Z,129.20
2018-09-28T07:41:46.405Z,117.07
2018-09-28T07:44:14.873Z,116.20
2018-09-28T07:46:43.389Z,121.73
2018-09-28T07:49:11.941Z,114.50
2018-09-28T07:51:40.457Z,108.80
2018-09-28T07:54:09.016Z,114.43
2018-09-28T07:56:37.573Z,110.00
2018-09-28T07:59:06.069Z,99.77
2018-09-28T08:01:34.691Z,93.63
2018-09-28T08:04:03.218Z,80.50
2018-09-28T08:06:31.707Z,77.57
2018-09-28T08:09:00.212Z,80.73
2018-09-28T08:11:28.721Z,77.43
2018-09-28T08:13:57.237Z,80.73
2018-09-28T08:16:25.726Z,75.93
2018-09-28T08:18:54.251Z,70.30
2018-09-28T08:21:22.760Z,68.63
2018-09-28T08:23:51.263Z,79.43
2018-09-28T08:26:19.744Z,75.03
2018-09-28T08:28:48.305Z,73.30
2018-09-28T08:31:16.799Z,76.97
2018-09-28T08:33:45.365Z,80.63
2018-09-28T08:36:13.920Z,67.00
2018-09-28T08:38:42.502Z,64.13
2018-09-28T08:41:11.087Z,61.50
2018-09-28T08:43:39.651Z,55.77
2018-09-28T08:46:08.226Z,69.07
2018-09-28T08:48:36.899Z,77.93
2018-09-28T08:51:05.990Z,60.90
2018-09-28T08:53:34.577Z,57.77
2018-09-28T08:56:03.609Z,47.57
2018-09-28T08:58:34.894Z,47.43
2018-09-28T09:01:05.890Z,51.80
2018-09-28T09:03:34.471Z,55.20
2018-09-28T09:06:05.136Z,58.67
2018-09-28T09:08:35.252Z,45.60
2018-09-28T09:11:03.766Z,46.67
2018-09-28T09:13:34.384Z,42.27
2018-09-28T09:16:05.451Z,41.20
2018-09-28T09:18:34.019Z,42.17
2018-09-28T09:21:04.629Z,38.70
2018-09-28T09:23:35.497Z,44.40
2018-09-28T09:26:04.040Z,46.97
2018-09-28T09:28:32.527Z,38.90
2018-09-28T09:31:01.239Z,34.23
2018-09-28T09:33:32.938Z,32.90
2018-09-28T09:36:01.438Z,38.77
2018-09-28T09:38:29.963Z,39.60
2018-09-28T09:40:58.490Z,41.10
2018-09-28T09:43:26.983Z,39.47
2018-09-28T09:45:57.704Z,40.00
2018-09-28T09:48:27.546Z,40.20
2018-09-28T09:50:55.998Z,44.07
2018-09-28T09:53:26.576Z,46.93
2018-09-28T09:55:55.212Z,52.10
2018-09-28T09:58:23.851Z,42.43
2018-09-28T10:00:59.290Z,41.87
2018-09-28T10:03:34.157Z,40.33
2018-09-28T10:06:04.017Z,40.40
2018-09-28T10:08:32.748Z,48.40
2018-09-28T10:11:01.387Z,41.70
2018-09-28T10:13:30.145Z,40.30
2018-09-28T10:16:00.603Z,40.13
2018-09-28T10:18:30.704Z,44.83
2018-09-28T10:20:59.247Z,40.13
2018-09-28T10:23:27.742Z,35.50
2018-09-28T10:25:56.260Z,35.03
2018-09-28T10:28:26.599Z,32.20
2018-09-28T10:30:55.132Z,32.73
2018-09-28T10:33:23.738Z,19.80
2018-09-28T10:35:52.240Z,25.77
2018-09-28T10:38:23.379Z,27.10
2018-09-28T10:40:52.884Z,30.13
2018-09-28T10:43:21.360Z,34.23
2018-09-28T10:45:49.931Z,24.30
2018-09-28T10:48:18.490Z,34.37
2018-09-28T10:50:47.070Z,31.20
2018-09-28T10:53:18.830Z,28.13
2018-09-28T10:55:47.454Z,31.50
2018-09-28T10:58:16.170Z,33.33
2018-09-28T11:00:45.967Z,26.83
2018-09-28T11:03:15.284Z,34.37
2018-09-28T11:05:43.800Z,46.33
2018-09-28T11:08:14.806Z,21.33
2018-09-28T11:10:43.812Z,20.40
2018-09-28T11:13:12.685Z,35.37
2018-09-28T11:15:43.864Z,19.30
2018-09-28T11:18:12.782Z,21.50
2018-09-28T11:20:41.312Z,20.93
2018-09-28T11:23:09.853Z,18.57
2018-09-28T11:25:38.391Z,25.70
2018-09-28T11:28:09.198Z,27.60
2018-09-28T11:30:38.068Z,22.33
2018-09-28T11:33:08.238Z,17.30
2018-09-28T11:35:37.243Z,20.03
2018-09-28T11:38:08.308Z,23.87
2018-09-28T11:40:38.454Z,30.33
2018-09-28T11:43:07.358Z,15.43
2018-09-28T11:45:36.391Z,16.93
2018-09-28T11:48:04.895Z,13.63
2018-09-28T11:50:34.617Z,23.80
2018-09-28T11:53:06.779Z,13.83
2018-09-28T11:55:36.529Z,14.10
2018-09-28T11:58:05.285Z,12.03
2018-09-28T12:00:35.327Z,21.47
2018-09-28T12:03:04.936Z,14.33
2018-09-28T12:05:33.701Z,21.07
2018-09-28T12:08:04.811Z,19.93
2018-09-28T12:10:33.316Z,15.33
2018-09-28T12:13:01.800Z,13.70
2018-09-28T12:15:33.587Z,16.03
2018-09-28T12:18:02.096Z,25.03
2018-09-28T12:20:30.724Z,26.40
2018-09-28T12:23:00.372Z,14.70
2018-09-28T12:25:28.822Z,20.00
2018-09-28T12:27:57.378Z,16.90
2018-09-28T12:30:25.924Z,8.57
2018-09-28T12:32:54.354Z,22.27
2018-09-28T12:35:22.882Z,9.83
2018-09-28T12:37:52.759Z,20.83
2018-09-28T12:40:24.506Z,16.37
2018-09-28T12:42:53.111Z,16.00
2018-09-28T12:45:23.483Z,21.33
2018-09-28T12:47:52.982Z,20.10
2018-09-28T12:50:21.570Z,16.73
2018-09-28T12:52:50.056Z,19.97
2018-09-28T12:55:18.808Z,23.27
2018-09-28T12:57:47.556Z,23.13
2018-09-28T13:00:17.679Z,25.27
2018-09-28T13:02:46.209Z,21.07
2018-09-28T13:05:16.634Z,17.73
2018-09-28T13:07:45.144Z,25.17
2018-09-28T13:10:13.723Z,18.43
2018-09-28T13:12:42.532Z,25.17
2018-09-28T13:15:11.179Z,30.27
2018-09-28T13:17:39.682Z,17.53
2018-09-28T13:20:08.497Z,14.70
2018-09-28T13:22:37.114Z,18.20
2018-09-28T13:25:05.631Z,22.00
2018-09-28T13:27:34.177Z,29.00
2018-09-28T13:30:02.968Z,14.73
2018-09-28T13:32:31.576Z,20.20
2018-09-28T13:35:00.110Z,17.97
2018-09-28T13:37:28.670Z,12.63
2018-09-28T13:39:58.262Z,16.53
2018-09-28T13:42:26.989Z,21.77
2018-09-28T13:44:56.574Z,12.53
2018-09-28T13:47:25.075Z,16.70
2018-09-28T13:49:53.597Z,14.30
2018-09-28T13:52:23.017Z,20.70
2018-09-28T13:54:51.555Z,16.17
2018-09-28T13:57:22.540Z,13.63
2018-09-28T13:59:53.364Z,14.97
2018-09-28T14:02:22.443Z,17.00
2018-09-28T14:04:51.036Z,16.60
2018-09-28T14:07:19.464Z,14.47
2018-09-28T14:09:48.020Z,15.07
2018-09-28T14:12:17.124Z,20.33
2018-09-28T14:14:45.736Z,21.33
2018-09-28T14:17:14.272Z,15.43
2018-09-28T14:19:43.456Z,21.67
2018-09-28T14:22:14.439Z,18.37
2018-09-28T14:24:44.049Z,28.13
2018-09-28T14:27:12.600Z,11.93
2018-09-28T14:29:41.174Z,21.93
2018-09-28T14:32:09.921Z,27.90
2018-09-28T14:34:40.169Z,22.77
2018-09-28T14:37:11.515Z,29.93
2018-09-28T14:39:40.091Z,20.47
2018-09-28T14:42:10.629Z,16.53
2018-09-28T14:44:41.340Z,25.70
2018-09-28T14:47:09.989Z,15.97
2018-09-28T14:49:38.606Z,15.27
2018-09-28T14:52:07.135Z,39.27
2018-09-28T14:54:35.750Z,24.00
2018-09-28T14:57:06.310Z,10.37
2018-09-28T14:59:37.271Z,21.93
2018-09-28T15:02:07.414Z,24.27
2018-09-28T15:04:36.147Z,26.57
2018-09-28T15:07:06.117Z,22.93
2018-09-28T15:09:36.567Z,11.37
2018-09-28T15:12:06.328Z,13.20
2018-09-28T15:14:35.976Z,19.27
2018-09-28T15:17:05.118Z,22.80
2018-09-28T15:19:33.740Z,19.23
2018-09-28T15:22:04.541Z,14.70
2018-09-28T15:24:33.115Z,8.90
2018-09-28T15:27:01.632Z,23.57
2018-09-28T15:29:37.223Z,14.37
2018-09-28T15:32:06.011Z,12.40
2018-09-28T15:34:35.020Z,14.80
2018-09-28T15:37:04.861Z,10.20
2018-09-28T15:39:33.307Z,12.20
2018-09-28T15:42:03.256Z,15.17
2018-09-28T15:44:31.881Z,12.60
2018-09-28T15:47:00.471Z,19.87
2018-09-28T15:49:29.762Z,8.80
2018-09-28T15:51:58.414Z,14.13
2018-09-28T15:54:27.693Z,14.33
2018-09-28T15:56:57.964Z,17.90
2018-09-28T15:59:29.053Z,9.13
2018-09-28T16:01:57.593Z,9.10
2018-09-28T16:04:26.161Z,12.77
2018-09-28T16:06:54.611Z,9.80
2018-09-28T16:09:23.119Z,9.17
2018-09-28T16:11:51.691Z,21.83
2018-09-28T16:14:20.281Z,18.47
2018-09-28T16:16:48.792Z,12.47
2018-09-28T16:19:17.313Z,14.93
2018-09-28T16:21:45.786Z,13.63
2018-09-28T16:24:14.403Z,5.93
2018-09-28T16:26:44.685Z,7.57
2018-09-28T16:29:13.339Z,16.20
2018-09-28T16:31:41.859Z,7.03
2018-09-28T16:34:10.342Z,8.30
2018-09-28T16:36:40.447Z,14.47
2018-09-28T16:39:10.198Z,12.70
2018-09-28T16:41:39.921Z,16.33
2018-09-28T16:44:09.642Z,13.67
2018-09-28T16:46:38.180Z,14.17
2018-09-28T16:49:06.754Z,6.50
2018-09-28T16:51:37.547Z,11.33
2018-09-28T16:54:07.059Z,13.33
2018-09-28T16:56:35.713Z,17.00
2018-09-28T16:59:04.199Z,3.43
2018-09-28T17:01:33.366Z,7.90
2018-09-28T17:04:02.406Z,7.83
2018-09-28T17:06:31.520Z,7.03
2018-09-28T17:09:00.037Z,7.73
2018-09-28T17:11:29.931Z,8.67
2018-09-28T17:13:59.604Z,7.80
2018-09-28T17:16:28.837Z,14.93
2018-09-28T17:18:58.034Z,9.10
2018-09-28T17:21:26.588Z,4.67
2018-09-28T17:23:58.284Z,15.73
2018-09-28T17:26:27.076Z,4.30
2018-09-28T17:28:55.693Z,11.23
2018-09-28T17:31:24.473Z,10.20
2018-09-28T17:33:53.136Z,10.43
2018-09-28T17:36:21.614Z,16.23
2018-09-28T17:38:50.151Z,13.00
2018-09-28T17:41:18.735Z,6.33
2018-09-28T17:43:47.200Z,12.90
2018-09-28T17:46:15.711Z,9.90
2018-09-28T17:48:44.191Z,7.80
2018-09-28T17:51:12.748Z,11.10
2018-09-28T17:53:41.264Z,8.20
2018-09-28T17:56:09.732Z,5.13
2018-09-28T17:58:38.220Z,3.87
2018-09-28T18:01:06.684Z,7.73
2018-09-28T18:03:35.191Z,9.70
2018-09-28T18:06:03.808Z,11.07
2018-09-28T18:08:32.330Z,5.67
2018-09-28T18:11:00.785Z,11.60
2018-09-28T18:13:29.288Z,12.43
2018-09-28T18:15:57.735Z,5.77
2018-09-28T18:18:26.224Z,5.37
2018-09-28T18:20:54.755Z,12.50
2018-09-28T18:23:23.265Z,5.70
2018-09-28T18:25:51.725Z,9.47
2018-09-28T18:28:20.171Z,14.03
2018-09-28T18:30:48.657Z,5.10
2018-09-28T18:33:17.188Z,13.40
2018-09-28T18:35:45.644Z,4.30
2018-09-28T18:38:14.153Z,14.17
2018-09-28T18:40:42.640Z,5.00
2018-09-28T18:43:11.128Z,8.03
2018-09-28T18:45:39.634Z,9.77
2018-09-28T18:48:08.149Z,4.57
2018-09-28T18:50:36.641Z,6.33
2018-09-28T18:53:05.049Z,5.73
2018-09-28T18:55:33.551Z,5.50
2018-09-28T18:58:02.081Z,10.10
2018-09-28T19:00:30.597Z,10.63
2018-09-28T19:02:59.056Z,6.93
2018-09-28T19:05:27.554Z,4.73
2018-09-28T19:07:55.992Z,3.90
2018-09-28T19:10:24.550Z,3.47
2018-09-28T19:12:53.787Z,6.13
2018-09-28T19:15:22.084Z,6.53
2018-09-28T19:17:50.571Z,1.90
2018-09-28T19:20:19.059Z,12.13
2018-09-28T19:22:47.632Z,11.63
2018-09-28T19:25:16.117Z,9.03
2018-09-28T19:27:44.622Z,11.27
2018-09-28T19:30:13.182Z,10.27
2018-09-28T19:32:43.916Z,8.23
2018-09-28T19:35:12.379Z,7.27
2018-09-28T19:37:41.008Z,6.10
2018-09-28T19:40:09.460Z,5.70
2018-09-28T19:42:37.911Z,6.73
2018-09-28T19:45:06.452Z,5.57
2018-09-28T19:47:34.986Z,5.23
2018-09-28T19:50:03.397Z,3.93
2018-09-28T19:52:31.908Z,10.40
2018-09-28T19:55:00.389Z,4.63
2018-09-28T19:57:28.816Z,8.77
2018-09-28T19:59:57.229Z,3.00
2018-09-28T20:02:25.824Z,4.90
2018-09-28T20:04:54.252Z,10.43
2018-09-28T20:07:22.711Z,9.73
2018-09-28T20:09:51.329Z,9.97
2018-09-28T20:12:19.791Z,12.20
2018-09-28T20:14:48.155Z,8.80
2018-09-28T20:17:16.549Z,11.17
2018-09-28T20:19:46.627Z,9.17
2018-09-28T20:22:15.145Z,8.13
2018-09-28T20:24:43.577Z,18.30
2018-09-28T20:27:12.274Z,13.93
2018-09-28T20:29:40.845Z,10.17
2018-09-28T20:32:09.598Z,15.97
2018-09-28T20:34:38.125Z,10.33
2018-09-28T20:37:06.648Z,10.43
2018-09-28T20:39:35.142Z,16.10
2018-09-28T20:42:03.612Z,7.23
2018-09-28T20:44:32.091Z,7.47
2018-09-28T20:47:00.586Z,10.70
2018-09-28T20:49:29.070Z,10.23
2018-09-28T20:51:57.612Z,12.67
2018-09-28T20:54:26.186Z,14.53
2018-09-28T20:56:54.768Z,24.90
2018-09-28T20:59:23.269Z,10.40
2018-09-28T21:01:51.832Z,6.60
2018-09-28T21:04:20.452Z,6.23
2018-09-28T21:06:48.916Z,4.40
2018-09-28T21:09:17.474Z,5.80
2018-09-28T21:11:45.977Z,34.97
2018-09-28T21:14:14.646Z,4.63
2018-09-28T21:16:43.116Z,9.47
2018-09-28T21:19:11.823Z,14.90
2018-09-28T21:21:40.292Z,8.40
2018-09-28T21:24:08.728Z,2.70
2018-09-28T21:26:37.211Z,10.00
2018-09-28T21:29:05.821Z,18.87
2018-09-28T21:31:34.257Z,6.03
2018-09-28T21:34:02.700Z,6.27
2018-09-28T21:36:31.247Z,8.63
2018-09-28T21:38:59.740Z,5.90
2018-09-28T21:41:28.483Z,5.97
2018-09-28T21:43:56.950Z,7.70
2018-09-28T21:46:25.481Z,5.50
2018-09-28T21:48:53.970Z,12.07
2018-09-28T21:51:22.779Z,8.77
2018-09-28T21:53:51.297Z,15.03
2018-09-28T21:56:19.795Z,25.10
2018-09-28T21:58:48.248Z,5.50
2018-09-28T22:01:18.236Z,6.33
2018-09-28T22:03:47.707Z,7.27
2018-09-28T22:06:16.186Z,4.63
2018-09-28T22:08:44.858Z,3.90
2018-09-28T22:11:13.523Z,9.30
2018-09-28T22:13:42.034Z,9.23
2018-09-28T22:16:10.588Z,10.60
2018-09-28T22:18:39.230Z,6.13
2018-09-28T22:21:07.745Z,5.53
2018-09-28T22:23:36.272Z,5.00
2018-09-28T22:26:04.785Z,6.67
2018-09-28T22:28:34.342Z,7.10
2018-09-28T22:31:02.852Z,8.40
2018-09-28T22:33:31.400Z,13.00
2018-09-28T22:35:59.904Z,5.20
2018-09-28T22:38:28.495Z,10.67
2018-09-28T22:40:57.009Z,15.10
2018-09-28T22:43:25.592Z,5.57
2018-09-28T22:45:54.099Z,12.63
2018-09-28T22:48:22.632Z,10.47
2018-09-28T22:50:51.148Z,3.33
2018-09-28T22:53:19.674Z,12.50
2018-09-28T22:55:48.205Z,10.40
2018-09-28T22:58:16.679Z,13.33
2018-09-28T23:00:46.025Z,17.37
2018-09-28T23:03:14.577Z,10.80
2018-09-28T23:05:43.113Z,18.50
2018-09-28T23:08:11.701Z,6.53
2018-09-28T23:10:40.412Z,5.33
2018-09-28T23:13:08.999Z,16.13
2018-09-28T23:15:37.654Z,11.20
2018-09-28T23:18:06.230Z,2.23
2018-09-28T23:20:35.057Z,14.47
2018-09-28T23:23:03.639Z,10.73
2018-09-28T23:25:32.173Z,11.67
2018-09-28T23:28:00.691Z,9.77
2018-09-28T23:30:29.265Z,14.13
2018-09-28T23:32:57.803Z,8.50
2018-09-28T23:35:26.411Z,12.83
2018-09-28T23:37:55.053Z,13.60
2018-09-28T23:40:23.884Z,14.33
2018-09-28T23:42:52.456Z,16.47
2018-09-28T23:45:21.126Z,7.30
2018-09-28T23:47:49.736Z,4.00
2018-09-28T23:50:18.281Z,7.00
2018-09-28T23:52:46.850Z,6.43
2018-09-28T23:55:15.703Z,4.20
2018-09-28T23:57:44.235Z,13.13
